Time;durP1;ratioP1;P1;durP2;ratioP2;P2;SDS_P1;SDS_P2;PMS_P1;PMS_P2;Temp;Humidity;BMP_temperature;BMP_pressure;BME280_temperature;BME280_humidity;BME280_pressure;Samples;Min_cycle;Max_cycle;Signal;HPM_P1;HPM_P2
2021/10/17 00:00:33;;;;;;;;;;;22.90;44.90;;;;;;1586317;72;1049;-68
2021/10/17 00:02:35;;;;;;;;;;;22.90;44.90;;;;;;1586359;72;750;-68
2021/10/17 00:04:37;;;;;;;;;;;22.90;44.80;;;;;;1585971;72;750;-69
2021/10/17 00:06:38;;;;;;;;;;;22.90;44.80;;;;;;1586768;72;757;-69
2021/10/17 00:08:40;;;;;;;;;;;22.90;44.80;;;;;;1587672;72;702;-69
2021/10/17 00:10:42;;;;;;;;;;;22.90;45.00;;;;;;1586705;72;1098;-69
2021/10/17 00:12:44;;;;;;;;;;;22.90;45.00;;;;;;1590748;72;802;-69
2021/10/17 00:14:46;;;;;;;;;;;22.90;45.00;;;;;;1585731;72;740;-69
2021/10/17 00:16:48;;;;;;;;;;;22.90;45.10;;;;;;1591504;72;709;-69
2021/10/17 00:18:50;;;;;;;;;;;22.90;45.10;;;;;;1587125;72;1941;-69
2021/10/17 00:20:52;;;;;;;;;;;22.90;45.00;;;;;;1590087;74;797;-69
2021/10/17 00:22:54;;;;;;;;;;;22.90;45.00;;;;;;1591828;72;785;-67
2021/10/17 00:24:55;;;;;;;;;;;22.90;45.00;;;;;;1585712;72;777;-68
2021/10/17 00:26:57;;;;;;;;;;;22.90;45.00;;;;;;1588116;72;754;-68
2021/10/17 00:28:59;;;;;;;;;;;22.90;44.90;;;;;;1586244;72;1121;-68
2021/10/17 00:31:01;;;;;;;;;;;22.90;44.90;;;;;;1594598;72;709;-68
2021/10/17 00:33:03;;;;;;;;;;;22.90;44.90;;;;;;1639068;72;719;-68
2021/10/17 00:35:06;;;;;;;;;;;22.90;44.90;;;;;;1642836;72;718;-67
2021/10/17 00:37:08;;;;;;;;;;;22.90;44.80;;;;;;1587380;72;796;-68
2021/10/17 00:39:09;;;;;;;;;;;22.90;44.80;;;;;;1572956;74;1932;-70
2021/10/17 00:41:11;;;;;;;;;;;22.90;44.70;;;;;;1572636;75;730;-68
2021/10/17 00:43:13;;;;;;;;;;;22.90;44.80;;;;;;1580177;74;683;-68
2021/10/17 00:45:16;;;;;;;;;;;22.90;44.70;;;;;;1606111;72;740;-68
2021/10/17 00:47:18;;;;;;;;;;;22.90;44.70;;;;;;1598465;73;760;-70
2021/10/17 00:49:20;;;;;;;;;;;22.90;44.70;;;;;;1598776;73;1132;-69
2021/10/17 00:51:22;;;;;;;;;;;22.90;44.70;;;;;;1598763;73;725;-69
2021/10/17 00:53:24;;;;;;;;;;;22.90;44.80;;;;;;1598499;74;782;-70
2021/10/17 00:55:29;;;;;;;;;;;22.90;44.70;;;;;;1578056;74;741;-69
2021/10/17 00:57:29;;;;;;;;;;;22.80;44.70;;;;;;1572559;74;1158;-69
2021/10/17 00:59:31;;;;;;;;;;;22.80;44.70;;;;;;1588306;73;1937;-69
2021/10/17 01:01:33;;;;;;;;;;;22.90;44.90;;;;;;1606304;73;743;-68
2021/10/17 01:03:35;;;;;;;;;;;22.80;44.70;;;;;;1574835;75;799;-68
2021/10/17 01:05:37;;;;;;;;;;;22.80;44.70;;;;;;1572948;74;793;-68
2021/10/17 01:07:39;;;;;;;;;;;22.80;44.80;;;;;;1573035;75;726;-68
2021/10/17 01:09:41;;;;;;;;;;;22.70;44.80;;;;;;1572699;75;1102;-68
2021/10/17 01:11:43;;;;;;;;;;;22.90;44.90;;;;;;1574668;74;733;-68
2021/10/17 01:13:45;;;;;;;;;;;22.90;45.00;;;;;;1574558;74;722;-68
2021/10/17 01:15:51;;;;;;;;;;;22.90;45.00;;;;;;1572725;75;738;-68
2021/10/17 01:17:53;;;;;;;;;;;22.90;44.90;;;;;;1599025;72;1012;-69
2021/10/17 01:19:55;;;;;;;;;;;22.80;44.80;;;;;;1590189;74;1938;-69
2021/10/17 01:21:57;;;;;;;;;;;22.80;44.80;;;;;;1609498;73;644;-69
2021/10/17 01:23:59;;;;;;;;;;;22.90;45.00;;;;;;1613945;72;643;-69
2021/10/17 01:26:00;;;;;;;;;;;22.70;44.90;;;;;;1613488;73;793;-70
2021/10/17 01:28:02;;;;;;;;;;;22.70;44.90;;;;;;1612056;74;688;-71
2021/10/17 01:30:05;;;;;;;;;;;22.80;45.00;;;;;;1614050;74;1120;-70
2021/10/17 01:32:07;;;;;;;;;;;22.90;45.10;;;;;;1613581;73;697;-71
2021/10/17 01:34:09;;;;;;;;;;;22.80;45.00;;;;;;1614049;73;685;-71
2021/10/17 01:36:10;;;;;;;;;;;22.80;45.00;;;;;;1613893;72;687;-70
2021/10/17 01:38:12;;;;;;;;;;;22.80;45.00;;;;;;1613787;73;672;-69
2021/10/17 01:40:14;;;;;;;;;;;22.80;44.90;;;;;;1613773;72;1964;-69
2021/10/17 01:42:16;;;;;;;;;;;22.70;44.90;;;;;;1613045;73;785;-70
2021/10/17 01:44:25;;;;;;;;;;;22.80;44.90;;;;;;1606233;74;683;-70
2021/10/17 01:46:27;;;;;;;;;;;22.80;45.00;;;;;;1605303;72;1021;-72
2021/10/17 01:48:29;;;;;;;;;;;22.80;45.00;;;;;;1599658;72;706;-71
2021/10/17 01:50:31;;;;;;;;;;;22.80;45.00;;;;;;1596330;72;1059;-71
2021/10/17 01:52:33;;;;;;;;;;;22.70;45.00;;;;;;1605217;72;721;-71
2021/10/17 01:54:35;;;;;;;;;;;22.70;44.90;;;;;;1585144;74;669;-71
2021/10/17 01:56:37;;;;;;;;;;;22.80;44.90;;;;;;1585418;74;667;-71
2021/10/17 01:58:39;;;;;;;;;;;22.80;44.90;;;;;;1592294;72;631;-71
2021/10/17 02:00:40;;;;;;;;;;;22.80;44.90;;;;;;1574269;73;2117;-71
2021/10/17 02:02:42;;;;;;;;;;;22.80;45.00;;;;;;1553292;74;778;-71
2021/10/17 02:04:44;;;;;;;;;;;22.80;45.00;;;;;;1564208;74;745;-72
2021/10/17 02:06:46;;;;;;;;;;;22.80;45.00;;;;;;1562904;74;755;-73
2021/10/17 02:08:48;;;;;;;;;;;22.80;45.10;;;;;;1556852;74;795;-72
2021/10/17 02:10:50;;;;;;;;;;;22.80;45.10;;;;;;1569656;74;1185;-73
2021/10/17 02:12:52;;;;;;;;;;;22.80;45.20;;;;;;1577550;74;730;-72
2021/10/17 02:14:54;;;;;;;;;;;22.70;45.10;;;;;;1569048;74;781;-74
2021/10/17 02:16:56;;;;;;;;;;;22.80;45.10;;;;;;1569078;74;613;-73
2021/10/17 02:18:58;;;;;;;;;;;22.70;45.00;;;;;;1575138;74;843;-73
2021/10/17 02:21:00;;;;;;;;;;;22.80;45.10;;;;;;1573043;74;1953;-73
2021/10/17 02:23:04;;;;;;;;;;;22.70;45.10;;;;;;1578053;74;754;-74
2021/10/17 02:25:05;;;;;;;;;;;22.80;45.10;;;;;;1565801;74;2003;-74
2021/10/17 02:27:07;;;;;;;;;;;22.80;45.10;;;;;;1569156;74;734;-73
2021/10/17 02:29:09;;;;;;;;;;;22.70;45.10;;;;;;1573424;74;701;-71
2021/10/17 02:31:11;;;;;;;;;;;22.70;45.20;;;;;;1577802;74;673;-72
2021/10/17 02:33:13;;;;;;;;;;;22.80;45.30;;;;;;1573057;74;721;-73
2021/10/17 02:35:15;;;;;;;;;;;22.80;45.30;;;;;;1576501;74;753;-72
2021/10/17 02:37:16;;;;;;;;;;;22.90;45.60;;;;;;1566768;74;777;-72
2021/10/17 02:39:18;;;;;;;;;;;22.80;45.50;;;;;;1572200;74;1955;-71
2021/10/17 02:41:20;;;;;;;;;;;22.90;45.70;;;;;;1570862;74;765;-71
2021/10/17 02:43:22;;;;;;;;;;;23.00;45.70;;;;;;1575508;74;809;-71
2021/10/17 02:45:24;;;;;;;;;;;23.10;45.70;;;;;;1573564;74;768;-71
2021/10/17 02:47:26;;;;;;;;;;;23.10;45.50;;;;;;1569093;74;769;-71
2021/10/17 02:49:28;;;;;;;;;;;23.20;45.20;;;;;;1569451;74;1187;-72
2021/10/17 02:51:30;;;;;;;;;;;23.20;45.20;;;;;;1569293;74;729;-72
2021/10/17 02:53:32;;;;;;;;;;;23.40;45.20;;;;;;1571928;74;710;-75
2021/10/17 02:55:34;;;;;;;;;;;23.30;45.30;;;;;;1573312;74;721;-71
2021/10/17 02:57:36;;;;;;;;;;;23.30;45.30;;;;;;1579405;74;763;-74
2021/10/17 02:59:37;;;;;;;;;;;23.20;45.20;;;;;;1577766;74;1953;-74
2021/10/17 03:01:39;;;;;;;;;;;23.20;45.20;;;;;;1573655;74;1028;-74
2021/10/17 03:03:41;;;;;;;;;;;23.20;45.10;;;;;;1573645;74;719;-74
2021/10/17 03:05:43;;;;;;;;;;;23.30;45.20;;;;;;1569590;74;690;-74
2021/10/17 03:07:45;;;;;;;;;;;23.30;45.00;;;;;;1574028;74;741;-75
2021/10/17 03:09:47;;;;;;;;;;;23.30;45.00;;;;;;1576843;74;1140;-72
2021/10/17 03:11:49;;;;;;;;;;;23.40;44.80;;;;;;1577790;74;893;-71
2021/10/17 03:13:50;;;;;;;;;;;23.40;44.90;;;;;;1572752;74;726;-71
2021/10/17 03:15:52;;;;;;;;;;;23.30;45.00;;;;;;1577809;74;720;-71
2021/10/17 03:17:54;;;;;;;;;;;23.30;45.00;;;;;;1569233;74;717;-72
2021/10/17 03:19:56;;;;;;;;;;;23.40;45.00;;;;;;1573412;74;1922;-73
2021/10/17 03:21:58;;;;;;;;;;;23.40;45.10;;;;;;1568146;74;987;-74
2021/10/17 03:24:00;;;;;;;;;;;23.40;45.10;;;;;;1582948;74;666;-72
2021/10/17 03:26:02;;;;;;;;;;;23.40;45.10;;;;;;1574984;74;737;-72
2021/10/17 03:28:04;;;;;;;;;;;23.40;45.00;;;;;;1569640;75;807;-72
2021/10/17 03:30:06;;;;;;;;;;;23.40;44.90;;;;;;1569765;74;1104;-68
2021/10/17 03:32:08;;;;;;;;;;;23.50;45.10;;;;;;1573481;74;815;-69
2021/10/17 03:34:10;;;;;;;;;;;23.40;45.00;;;;;;1571133;74;657;-69
2021/10/17 03:36:12;;;;;;;;;;;23.40;44.90;;;;;;1577621;74;747;-69
2021/10/17 03:38:14;;;;;;;;;;;23.50;45.00;;;;;;1573368;74;735;-69
2021/10/17 03:40:15;;;;;;;;;;;23.50;44.90;;;;;;1573661;74;1954;-68
2021/10/17 03:42:17;;;;;;;;;;;23.50;44.90;;;;;;1572957;74;761;-69
2021/10/17 03:44:19;;;;;;;;;;;23.50;44.80;;;;;;1573647;74;773;-70
2021/10/17 03:46:21;;;;;;;;;;;23.60;44.70;;;;;;1572264;74;776;-69
2021/10/17 03:48:23;;;;;;;;;;;23.50;44.70;;;;;;1569463;74;802;-68
2021/10/17 03:50:25;;;;;;;;;;;23.60;44.70;;;;;;1572203;74;1139;-69
2021/10/17 03:52:27;;;;;;;;;;;23.60;44.70;;;;;;1568587;74;803;-71
2021/10/17 03:54:28;;;;;;;;;;;23.60;44.70;;;;;;1570953;74;666;-75
2021/10/17 03:56:30;;;;;;;;;;;23.60;44.80;;;;;;1574189;74;726;-72
2021/10/17 03:58:32;;;;;;;;;;;23.60;44.80;;;;;;1569853;74;815;-74
2021/10/17 04:00:35;;;;;;;;;;;23.60;44.60;;;;;;1574301;74;1939;-76
2021/10/17 04:02:36;;;;;;;;;;;23.70;44.60;;;;;;1579661;74;713;-75
2021/10/17 04:04:38;;;;;;;;;;;23.70;44.40;;;;;;1575550;74;730;-75
2021/10/17 04:06:40;;;;;;;;;;;23.80;44.20;;;;;;1571821;74;763;-72
2021/10/17 04:08:44;;;;;;;;;;;23.80;44.10;;;;;;1567874;74;737;-75
2021/10/17 04:10:46;;;;;;;;;;;23.70;44.20;;;;;;1577257;74;1045;-72
2021/10/17 04:12:47;;;;;;;;;;;23.70;44.20;;;;;;1578553;74;654;-72
2021/10/17 04:14:49;;;;;;;;;;;23.70;44.40;;;;;;1567179;74;748;-73
2021/10/17 04:16:51;;;;;;;;;;;23.60;44.40;;;;;;1571757;74;793;-73
2021/10/17 04:18:53;;;;;;;;;;;23.70;44.50;;;;;;1571685;74;767;-72
2021/10/17 04:20:57;;;;;;;;;;;23.70;44.50;;;;;;1567235;74;1937;-73
2021/10/17 04:23:00;;;;;;;;;;;23.70;44.50;;;;;;1571427;74;1516;-73
2021/10/17 04:25:02;;;;;;;;;;;23.70;44.40;;;;;;1566082;74;808;-74
2021/10/17 04:27:07;;;;;;;;;;;23.70;44.40;;;;;;1577551;74;733;-72
2021/10/17 04:29:07;;;;;;;;;;;23.70;44.60;;;;;;1574090;74;1722;-68
2021/10/17 04:31:09;;;;;;;;;;;23.70;44.60;;;;;;1579017;74;1127;-75
2021/10/17 04:33:11;;;;;;;;;;;23.70;44.70;;;;;;1578629;74;724;-71
2021/10/17 04:35:13;;;;;;;;;;;23.70;44.70;;;;;;1573652;74;745;-74
2021/10/17 04:37:15;;;;;;;;;;;23.70;44.70;;;;;;1578982;74;685;-74
2021/10/17 04:39:17;;;;;;;;;;;23.70;44.60;;;;;;1573356;74;1161;-73
2021/10/17 04:41:19;;;;;;;;;;;23.70;44.70;;;;;;1570660;74;1950;-73
2021/10/17 04:43:20;;;;;;;;;;;23.70;44.70;;;;;;1574406;74;730;-71
2021/10/17 04:45:22;;;;;;;;;;;23.70;44.70;;;;;;1587503;74;734;-71
2021/10/17 04:47:24;;;;;;;;;;;23.70;44.70;;;;;;1590645;74;714;-72
2021/10/17 04:49:26;;;;;;;;;;;23.70;44.70;;;;;;1586288;74;1175;-72
2021/10/17 04:51:28;;;;;;;;;;;23.60;44.60;;;;;;1584783;75;722;-72
2021/10/17 04:53:30;;;;;;;;;;;23.60;44.70;;;;;;1584965;75;754;-72
2021/10/17 04:55:32;;;;;;;;;;;23.60;44.60;;;;;;1582198;75;552;-72
2021/10/17 04:57:34;;;;;;;;;;;23.60;44.70;;;;;;1569814;76;796;-73
2021/10/17 04:59:36;;;;;;;;;;;23.60;44.90;;;;;;1580361;74;1169;-72
2021/10/17 05:01:38;;;;;;;;;;;23.60;44.90;;;;;;1584572;75;1919;-73
2021/10/17 05:03:40;;;;;;;;;;;23.60;44.90;;;;;;1584977;75;768;-71
2021/10/17 05:05:42;;;;;;;;;;;23.60;44.80;;;;;;1585002;75;786;-74
2021/10/17 05:07:44;;;;;;;;;;;23.60;44.80;;;;;;1579457;75;684;-76
2021/10/17 05:09:45;;;;;;;;;;;23.60;44.90;;;;;;1569889;74;1127;-73
2021/10/17 05:11:47;;;;;;;;;;;23.70;44.90;;;;;;1569607;76;712;-71
2021/10/17 05:13:50;;;;;;;;;;;23.60;44.90;;;;;;1569874;74;782;-72
2021/10/17 05:15:51;;;;;;;;;;;23.60;44.90;;;;;;1564673;74;774;-71
2021/10/17 05:17:53;;;;;;;;;;;23.50;45.10;;;;;;1576227;75;562;-71
2021/10/17 05:19:55;;;;;;;;;;;23.50;45.10;;;;;;1585279;74;1132;-71
2021/10/17 05:21:57;;;;;;;;;;;23.60;45.10;;;;;;1585294;75;1968;-71
2021/10/17 05:23:59;;;;;;;;;;;23.60;45.00;;;;;;1585090;75;707;-71
2021/10/17 05:26:03;;;;;;;;;;;23.60;44.90;;;;;;1585162;75;699;-71
2021/10/17 05:28:04;;;;;;;;;;;23.60;44.80;;;;;;1570771;75;804;-72
2021/10/17 05:30:06;;;;;;;;;;;23.70;45.00;;;;;;1569834;74;1171;-71
2021/10/17 05:32:08;;;;;;;;;;;23.60;44.70;;;;;;1569913;76;659;-72
2021/10/17 05:34:10;;;;;;;;;;;23.60;44.70;;;;;;1569692;74;769;-71
2021/10/17 05:36:12;;;;;;;;;;;23.60;44.80;;;;;;1579516;75;748;-71
2021/10/17 05:38:14;;;;;;;;;;;23.60;44.90;;;;;;1570055;76;784;-71
2021/10/17 05:40:16;;;;;;;;;;;23.60;44.90;;;;;;1569750;74;1113;-73
2021/10/17 05:42:18;;;;;;;;;;;23.50;44.90;;;;;;1569869;76;1915;-73
2021/10/17 05:44:20;;;;;;;;;;;23.50;45.00;;;;;;1569953;75;704;-73
2021/10/17 05:46:21;;;;;;;;;;;23.50;45.00;;;;;;1589224;74;747;-73
2021/10/17 05:48:23;;;;;;;;;;;23.50;45.10;;;;;;1595100;74;661;-71
2021/10/17 05:50:25;;;;;;;;;;;23.50;45.10;;;;;;1595013;73;1095;-74
2021/10/17 05:52:27;;;;;;;;;;;23.50;45.20;;;;;;1587440;74;788;-73
2021/10/17 05:54:29;;;;;;;;;;;23.50;45.20;;;;;;1573367;74;793;-72
2021/10/17 05:56:31;;;;;;;;;;;23.50;45.30;;;;;;1574359;74;774;-72
2021/10/17 05:58:33;;;;;;;;;;;23.70;45.20;;;;;;1575926;74;719;-73
2021/10/17 06:00:35;;;;;;;;;;;23.60;45.00;;;;;;1575669;74;1922;-73
2021/10/17 06:02:37;;;;;;;;;;;23.60;45.00;;;;;;1572108;74;795;-73
2021/10/17 06:04:39;;;;;;;;;;;23.50;45.00;;;;;;1572385;74;766;-73
2021/10/17 06:06:41;;;;;;;;;;;23.60;44.90;;;;;;1571152;74;767;-72
2021/10/17 06:08:43;;;;;;;;;;;23.50;44.90;;;;;;1575643;74;701;-72
2021/10/17 06:10:45;;;;;;;;;;;23.50;45.00;;;;;;1575855;74;1088;-72
2021/10/17 06:12:47;;;;;;;;;;;23.50;44.90;;;;;;1571979;74;649;-73
2021/10/17 06:14:49;;;;;;;;;;;23.40;44.80;;;;;;1575901;74;776;-73
2021/10/17 06:16:51;;;;;;;;;;;23.40;44.80;;;;;;1569043;74;771;-74
2021/10/17 06:18:52;;;;;;;;;;;23.50;44.90;;;;;;1572451;74;724;-73
2021/10/17 06:20:54;;;;;;;;;;;23.50;44.90;;;;;;1575752;74;1942;-71
2021/10/17 06:22:57;;;;;;;;;;;23.50;44.90;;;;;;1572639;74;782;-71
2021/10/17 06:24:59;;;;;;;;;;;23.40;44.80;;;;;;1576660;74;775;-73
2021/10/17 06:27:01;;;;;;;;;;;23.50;44.80;;;;;;1568326;74;766;-71
2021/10/17 06:29:02;;;;;;;;;;;23.50;44.80;;;;;;1572456;74;803;-71
2021/10/17 06:31:04;;;;;;;;;;;23.50;44.80;;;;;;1575981;74;1075;-71
2021/10/17 06:33:06;;;;;;;;;;;23.50;44.80;;;;;;1567649;74;700;-72
2021/10/17 06:35:08;;;;;;;;;;;23.60;44.70;;;;;;1568023;74;671;-72
2021/10/17 06:37:10;;;;;;;;;;;23.60;44.70;;;;;;1576081;74;876;-71
2021/10/17 06:39:12;;;;;;;;;;;23.60;44.60;;;;;;1571421;74;1133;-73
2021/10/17 06:41:14;;;;;;;;;;;23.60;44.40;;;;;;1572283;74;1930;-74
2021/10/17 06:43:16;;;;;;;;;;;23.60;44.50;;;;;;1574854;74;819;-71
2021/10/17 06:45:18;;;;;;;;;;;23.70;44.50;;;;;;1570235;74;793;-70
2021/10/17 06:47:20;;;;;;;;;;;23.70;44.40;;;;;;1570334;74;751;-73
2021/10/17 06:49:22;;;;;;;;;;;23.60;44.30;;;;;;1574061;74;1155;-73
2021/10/17 06:51:24;;;;;;;;;;;23.50;44.40;;;;;;1574919;74;770;-72
2021/10/17 06:53:25;;;;;;;;;;;23.60;44.60;;;;;;1573004;74;881;-72
2021/10/17 06:55:27;;;;;;;;;;;23.50;44.90;;;;;;1578885;74;790;-74
2021/10/17 06:57:29;;;;;;;;;;;23.50;45.20;;;;;;1570337;74;753;-74
2021/10/17 06:59:31;;;;;;;;;;;23.60;45.20;;;;;;1568081;74;1104;-74
2021/10/17 07:01:33;;;;;;;;;;;23.70;45.00;;;;;;1569860;75;1950;-73
2021/10/17 07:03:35;;;;;;;;;;;23.80;44.70;;;;;;1569597;76;784;-67
2021/10/17 07:05:37;;;;;;;;;;;23.80;44.60;;;;;;1569853;76;706;-67
2021/10/17 07:07:38;;;;;;;;;;;23.80;44.90;;;;;;1569990;74;761;-68
2021/10/17 07:09:40;;;;;;;;;;;23.80;44.80;;;;;;1579637;74;1103;-72
2021/10/17 07:11:43;;;;;;;;;;;23.70;44.90;;;;;;1585063;75;661;-74
2021/10/17 07:13:45;;;;;;;;;;;23.80;45.00;;;;;;1574708;75;764;-74
2021/10/17 07:15:46;;;;;;;;;;;23.70;45.00;;;;;;1564760;74;763;-72
2021/10/17 07:17:48;;;;;;;;;;;23.70;45.00;;;;;;1567190;74;731;-75
2021/10/17 07:19:50;;;;;;;;;;;23.70;45.20;;;;;;1572820;74;1079;-69
2021/10/17 07:21:52;;;;;;;;;;;23.70;45.40;;;;;;1569429;74;1946;-73
2021/10/17 07:23:54;;;;;;;;;;;23.70;45.70;;;;;;1569737;74;748;-73
2021/10/17 07:25:56;;;;;;;;;;;23.70;45.50;;;;;;1568435;74;707;-72
2021/10/17 07:27:58;;;;;;;;;;;23.70;45.40;;;;;;1567305;75;769;-72
2021/10/17 07:30:00;;;;;;;;;;;23.70;45.40;;;;;;1562840;74;1150;-74
2021/10/17 07:32:01;;;;;;;;;;;23.70;45.40;;;;;;1570061;74;804;-72
2021/10/17 07:34:03;;;;;;;;;;;23.70;45.40;;;;;;1575058;74;761;-73
2021/10/17 07:36:06;;;;;;;;;;;23.60;45.30;;;;;;1575926;74;738;-74
2021/10/17 07:38:08;;;;;;;;;;;23.60;45.30;;;;;;1571073;74;704;-71
2021/10/17 07:40:10;;;;;;;;;;;23.60;45.40;;;;;;1569909;74;1135;-72
2021/10/17 07:42:12;;;;;;;;;;;23.60;45.40;;;;;;1575438;74;1932;-73
2021/10/17 07:44:16;;;;;;;;;;;23.50;45.40;;;;;;1575579;74;722;-72
2021/10/17 07:46:17;;;;;;;;;;;23.50;45.40;;;;;;1561776;74;1421;-71
2021/10/17 07:48:19;;;;;;;;;;;23.50;45.50;;;;;;1576812;74;771;-72
2021/10/17 07:50:21;;;;;;;;;;;23.50;45.40;;;;;;1579471;74;1163;-73
2021/10/17 07:52:23;;;;;;;;;;;23.50;45.40;;;;;;1569576;74;727;-73
2021/10/17 07:54:25;;;;;;;;;;;23.50;45.40;;;;;;1569876;74;726;-72
2021/10/17 07:56:27;;;;;;;;;;;23.50;45.30;;;;;;1570672;74;715;-74
2021/10/17 07:58:29;;;;;;;;;;;23.50;45.40;;;;;;1570003;74;734;-72
2021/10/17 08:00:31;;;;;;;;;;;23.50;45.40;;;;;;1589872;72;226422;-53
2021/10/17 08:02:32;;;;;;;;;;;23.60;45.20;;;;;;1612775;72;1909;-51
2021/10/17 08:04:38;;;;;;;;;;;23.50;45.20;;;;;;1581044;73;1203;-51
2021/10/17 08:06:38;;;;;;;;;;;23.60;45.20;;;;;;1534799;75;1025;-55
2021/10/17 08:08:40;;;;;;;;;;;23.60;45.30;;;;;;1553449;76;682;-53
2021/10/17 08:10:42;;;;;;;;;;;23.60;45.20;;;;;;1548971;76;755;-52
2021/10/17 08:12:44;;;;;;;;;;;23.60;45.20;;;;;;1547816;76;738;-52
2021/10/17 08:14:45;;;;;;;;;;;23.60;45.20;;;;;;1549879;75;1161;-54
2021/10/17 08:16:48;;;;;;;;;;;23.60;45.20;;;;;;1553234;76;700;-55
2021/10/17 08:18:49;;;;;;;;;;;23.60;45.00;;;;;;1548716;76;719;-54
2021/10/17 08:20:51;;;;;;;;;;;23.60;45.00;;;;;;1554577;76;733;-54
2021/10/17 08:22:53;;;;;;;;;;;23.70;45.00;;;;;;1550492;75;1938;-56
2021/10/17 08:24:55;;;;;;;;;;;23.60;44.90;;;;;;1548112;75;1138;-55
2021/10/17 08:26:57;;;;;;;;;;;23.70;44.90;;;;;;1553579;76;650;-52
2021/10/17 08:28:59;;;;;;;;;;;23.60;44.90;;;;;;1547683;76;681;-52
2021/10/17 08:31:01;;;;;;;;;;;23.60;45.10;;;;;;1556370;76;740;-53
2021/10/17 08:33:03;;;;;;;;;;;23.60;45.00;;;;;;1558495;75;780;-52
2021/10/17 08:35:05;;;;;;;;;;;23.70;45.10;;;;;;1549336;76;1126;-55
2021/10/17 08:37:07;;;;;;;;;;;23.80;45.00;;;;;;1553789;76;798;-51
2021/10/17 08:39:09;;;;;;;;;;;23.90;45.00;;;;;;1549314;76;769;-55
2021/10/17 08:41:12;;;;;;;;;;;24.00;44.80;;;;;;1551096;75;747;-54
2021/10/17 08:43:14;;;;;;;;;;;24.00;44.70;;;;;;1547967;75;1923;-53
2021/10/17 08:45:16;;;;;;;;;;;24.10;44.70;;;;;;1537151;76;1206;-52
2021/10/17 08:47:18;;;;;;;;;;;24.10;44.50;;;;;;1547807;76;769;-53
2021/10/17 08:49:21;;;;;;;;;;;24.20;44.30;;;;;;1545404;76;761;-54
2021/10/17 08:51:23;;;;;;;;;;;24.20;44.20;;;;;;1536972;76;717;-54
2021/10/17 08:53:26;;;;;;;;;;;24.20;44.10;;;;;;1555994;75;681;-53
2021/10/17 08:55:28;;;;;;;;;;;24.20;44.00;;;;;;1563428;76;1218;-54
2021/10/17 08:57:30;;;;;;;;;;;24.20;43.90;;;;;;1563299;76;683;-55
2021/10/17 08:59:32;;;;;;;;;;;24.30;43.90;;;;;;1560904;76;708;-54
2021/10/17 09:01:34;;;;;;;;;;;24.30;43.80;;;;;;1581877;72;798;-54
2021/10/17 09:03:36;;;;;;;;;;;24.30;43.80;;;;;;1609425;72;1918;-56
2021/10/17 09:05:39;;;;;;;;;;;24.30;43.60;;;;;;1611277;74;1112;-53
2021/10/17 09:07:41;;;;;;;;;;;24.30;43.70;;;;;;1611214;74;676;-54
2021/10/17 09:09:43;;;;;;;;;;;24.30;43.70;;;;;;1611627;74;688;-54
2021/10/17 09:11:46;;;;;;;;;;;24.20;43.50;;;;;;1610725;72;730;-52
2021/10/17 09:14:05;;;;;;;;;;;24.30;43.60;;;;;;1589060;74;709;-52
2021/10/17 09:16:08;;;;;;;;;;;24.30;43.60;;;;;;1583115;74;2018;-54
2021/10/17 09:18:23;;;;;;;;;;;24.20;43.50;;;;;;1590377;74;1923;-53
2021/10/17 09:20:24;;;;;;;;;;;24.20;43.60;;;;;;1605219;72;1079;-55
2021/10/17 09:22:28;;;;;;;;;;;24.30;43.70;;;;;;1603543;72;1925;-53
2021/10/17 09:24:43;;;;;;;;;;;24.30;43.70;;;;;;1584416;74;1120;-55
2021/10/17 09:27:04;;;;;;;;;;;24.20;43.50;;;;;;1597977;74;1741;-55
2021/10/17 09:29:06;;;;;;;;;;;24.20;43.50;;;;;;1596069;72;776;-56
2021/10/17 09:31:08;;;;;;;;;;;24.30;43.60;;;;;;1601492;74;787;-54
2021/10/17 09:33:12;;;;;;;;;;;24.20;43.50;;;;;;1603277;74;705;-55
2021/10/17 09:35:13;;;;;;;;;;;24.30;43.60;;;;;;1594195;74;1141;-53
2021/10/17 09:37:15;;;;;;;;;;;24.20;43.40;;;;;;1588465;72;674;-54
2021/10/17 09:39:19;;;;;;;;;;;24.20;43.40;;;;;;1591026;74;669;-54
2021/10/17 09:41:22;;;;;;;;;;;24.20;43.50;;;;;;1607514;74;1129;-55
2021/10/17 09:43:29;;;;;;;;;;;24.10;43.60;;;;;;1611238;74;1900;-54
2021/10/17 09:45:30;;;;;;;;;;;24.00;43.60;;;;;;1601006;74;1603;-54
2021/10/17 09:47:38;;;;;;;;;;;24.00;43.70;;;;;;1583414;74;699;-53
2021/10/17 09:49:40;;;;;;;;;;;24.00;43.70;;;;;;1611159;74;772;-54
2021/10/17 09:51:42;;;;;;;;;;;24.00;43.80;;;;;;1592669;74;741;-54
2021/10/17 09:53:45;;;;;;;;;;;24.00;43.70;;;;;;1598241;74;771;-53
2021/10/17 09:55:52;;;;;;;;;;;23.90;43.80;;;;;;1590486;74;1156;-55
2021/10/17 09:57:53;;;;;;;;;;;23.90;43.90;;;;;;1599712;72;1307;-54
2021/10/17 09:59:55;;;;;;;;;;;23.90;43.90;;;;;;1606011;72;684;-53
2021/10/17 10:01:57;;;;;;;;;;;23.90;44.00;;;;;;1607682;74;784;-53
2021/10/17 10:04:00;;;;;;;;;;;23.90;44.00;;;;;;1603740;74;1931;-55
2021/10/17 10:06:02;;;;;;;;;;;23.80;43.90;;;;;;1600498;74;1150;-55
2021/10/17 10:08:04;;;;;;;;;;;23.80;43.90;;;;;;1598748;72;735;-55
2021/10/17 10:10:06;;;;;;;;;;;23.80;44.00;;;;;;1589468;74;678;-53
2021/10/17 10:12:08;;;;;;;;;;;23.80;43.90;;;;;;1599997;74;730;-55
2021/10/17 10:14:11;;;;;;;;;;;23.80;43.90;;;;;;1601864;74;673;-54
2021/10/17 10:16:13;;;;;;;;;;;23.70;43.90;;;;;;1592925;74;729;-55
2021/10/17 10:18:15;;;;;;;;;;;23.80;44.00;;;;;;1599216;72;826;-53
2021/10/17 10:20:17;;;;;;;;;;;23.80;44.00;;;;;;1603765;74;723;-54
2021/10/17 10:22:19;;;;;;;;;;;23.70;44.00;;;;;;1597842;74;1945;-56
2021/10/17 10:24:21;;;;;;;;;;;23.70;44.00;;;;;;1592925;74;1113;-55
2021/10/17 10:26:23;;;;;;;;;;;23.70;44.00;;;;;;1601672;74;707;-53
2021/10/17 10:28:26;;;;;;;;;;;23.70;44.00;;;;;;1601416;74;683;-55
2021/10/17 10:30:32;;;;;;;;;;;23.70;44.10;;;;;;1602166;74;715;-56
2021/10/17 10:32:34;;;;;;;;;;;23.70;44.10;;;;;;1598458;74;677;-54
2021/10/17 10:34:40;;;;;;;;;;;23.70;44.20;;;;;;1604276;74;1157;-55
2021/10/17 10:36:43;;;;;;;;;;;23.70;44.20;;;;;;1603173;72;704;-55
2021/10/17 10:38:55;;;;;;;;;;;23.60;44.00;;;;;;1608298;74;708;-55
2021/10/17 10:41:16;;;;;;;;;;;23.60;44.10;;;;;;1596568;74;698;-53
2021/10/17 10:43:18;;;;;;;;;;;23.70;44.20;;;;;;1602349;74;1937;-54
2021/10/17 10:45:21;;;;;;;;;;;23.70;44.10;;;;;;1604289;72;1167;-54
2021/10/17 10:47:25;;;;;;;;;;;23.70;44.20;;;;;;1598721;74;711;-57
2021/10/17 10:49:43;;;;;;;;;;;23.70;44.20;;;;;;1606581;74;1734;-58
2021/10/17 10:51:48;;;;;;;;;;;23.70;44.10;;;;;;1595230;74;684;-56
2021/10/17 10:53:54;;;;;;;;;;;23.70;44.10;;;;;;1600832;72;894;-56
2021/10/17 10:55:56;;;;;;;;;;;23.70;44.00;;;;;;1604727;72;1095;-58
2021/10/17 10:57:58;;;;;;;;;;;23.80;44.00;;;;;;1604846;74;777;-57
2021/10/17 11:00:10;;;;;;;;;;;23.90;44.00;;;;;;1607855;73;1257;-55
2021/10/17 11:02:18;;;;;;;;;;;23.90;43.90;;;;;;1599629;74;757;-57
2021/10/17 11:04:34;;;;;;;;;;;23.90;43.80;;;;;;1596884;72;1912;-56
2021/10/17 11:06:36;;;;;;;;;;;23.90;43.70;;;;;;1607666;74;767;-57
2021/10/17 11:08:38;;;;;;;;;;;23.90;43.70;;;;;;1597755;74;790;-57
2021/10/17 11:10:41;;;;;;;;;;;23.90;43.60;;;;;;1604612;74;715;-57
2021/10/17 11:12:46;;;;;;;;;;;24.00;43.50;;;;;;1605045;72;727;-55
2021/10/17 11:14:50;;;;;;;;;;;24.00;43.50;;;;;;1596790;72;1134;-56
2021/10/17 11:16:51;;;;;;;;;;;23.90;43.40;;;;;;1598167;74;1592;-54
2021/10/17 11:18:58;;;;;;;;;;;23.90;43.40;;;;;;1595948;74;750;-57
2021/10/17 11:21:00;;;;;;;;;;;24.00;43.40;;;;;;1593246;74;777;-54
2021/10/17 11:23:02;;;;;;;;;;;23.90;43.40;;;;;;1598546;72;1933;-54
2021/10/17 11:25:04;;;;;;;;;;;23.90;43.50;;;;;;1599998;74;1129;-54
2021/10/17 11:27:09;;;;;;;;;;;23.90;43.50;;;;;;1592357;74;852;-56
2021/10/17 11:29:11;;;;;;;;;;;23.90;43.60;;;;;;1591129;74;1437;-56
2021/10/17 11:31:14;;;;;;;;;;;23.90;43.60;;;;;;1604811;72;632;-55
2021/10/17 11:33:17;;;;;;;;;;;23.90;43.60;;;;;;1602479;74;730;-54
2021/10/17 11:35:27;;;;;;;;;;;23.90;43.60;;;;;;1599229;74;1092;-56
2021/10/17 11:37:30;;;;;;;;;;;23.90;43.60;;;;;;1600014;74;996;-55
2021/10/17 11:39:50;;;;;;;;;;;23.90;43.60;;;;;;1607126;74;739;-55
2021/10/17 11:41:53;;;;;;;;;;;23.90;43.70;;;;;;1605162;72;685;-57
2021/10/17 11:43:55;;;;;;;;;;;23.90;43.60;;;;;;1598770;74;1922;-54
2021/10/17 11:45:59;;;;;;;;;;;23.90;43.70;;;;;;1590222;74;1131;-55
2021/10/17 11:48:01;;;;;;;;;;;23.80;43.60;;;;;;1593550;74;1422;-56
2021/10/17 11:50:03;;;;;;;;;;;23.80;43.60;;;;;;1583470;74;717;-56
2021/10/17 11:52:06;;;;;;;;;;;23.80;43.60;;;;;;1602546;72;730;-56
2021/10/17 11:54:08;;;;;;;;;;;23.80;43.60;;;;;;1599271;74;822;-55
2021/10/17 11:56:11;;;;;;;;;;;23.90;43.70;;;;;;1600908;74;1140;-55
2021/10/17 11:58:18;;;;;;;;;;;23.90;43.70;;;;;;1600585;74;761;-56
2021/10/17 12:00:21;;;;;;;;;;;23.90;43.60;;;;;;1598088;72;729;-56
2021/10/17 12:02:32;;;;;;;;;;;23.90;43.60;;;;;;1601733;74;2000;-55
2021/10/17 12:04:42;;;;;;;;;;;23.90;43.60;;;;;;1588661;74;1915;-54
2021/10/17 12:06:45;;;;;;;;;;;23.90;43.60;;;;;;1604282;74;992;-57
2021/10/17 12:08:52;;;;;;;;;;;23.90;43.60;;;;;;1604328;74;1761;-56
2021/10/17 12:10:58;;;;;;;;;;;23.80;43.60;;;;;;1603110;72;678;-57